Flight Track Log - Related Links

Times and Time Zones

All times are in EDT time to prevent confusion due to time zone crossing. See the N45TP flight status page for this flight to view local times or setup timezone preferences in your user account.

Time Position Orientation Groundspeed Altitude Reporting Facility
EDT Latitude Longitude Course Direction KTS MPH feet Rate Location/Type
Sun 12:42:43 PM 35.3456 -82.4958 246° West 269 310 8,200  Level Atlanta Center
Sun 12:43:43 PM 35.2581 -82.5100 188° South 295 339 10,000 2,000 Climbing Atlanta Center
Sun 12:44:43 PM 35.1664 -82.5194 185° South 313 360 12,200 2,600 Climbing Atlanta Center
Sun 12:45:43 PM 35.0850 -82.5183 179° South 313 360 15,200 2,850 Climbing Atlanta Center
Sun 12:46:43 PM 34.9994 -82.5150 178° South 307 353 17,900 2,500 Climbing Atlanta Center
Sun 12:47:00 PM 34.9159 -82.4472 165° South  Level Estimated
Sun 12:47:43 PM 34.9158 -82.5164 181° South 307 353 20,200  Level Atlanta Center
Sun 12:48:00 PM 34.8800 -82.5447 246° West  Level FlightAware Approximate
Sun 12:48:43 PM 34.8283 -82.5131 178° South 307 353 21,900  Level Atlanta Center
Sun 12:49:43 PM 34.7386 -82.5147 181° South 312 359 23,300 1,450 Climbing Atlanta Center
Sun 12:50:43 PM 34.6469 -82.5289 187° South 325 374 24,800 1,100 Climbing Atlanta Center
Sun 12:51:43 PM 34.5494 -82.5736 201° Southwest 353 406 25,500 1,200 Climbing Atlanta Center
Sun 12:52:43 PM 34.4517 -82.5953 190° South 353 406 27,200 1,650 Climbing Atlanta Center
Sun 12:53:43 PM 34.3575 -82.5869 176° South 353 406 28,800 1,400 Climbing Atlanta Center
Sun 12:54:43 PM 34.2636 -82.5886 181° South 346 398 30,000 950 Climbing Atlanta Center
Sun 12:55:43 PM 34.1656 -82.5828 177° South 351 404 30,700 1,400 Climbing Atlanta Center
Sun 12:56:43 PM 34.0631 -82.5769 177° South 359 413 32,800 1,650 Climbing Atlanta Center
Sun 12:57:43 PM 33.9692 -82.5736 178° South 354 407 34,000 950 Climbing Atlanta Center
Sun 12:58:43 PM 33.8708 -82.5553 171° South 354 407 34,700 500 Climbing Atlanta Center
Sun 12:59:43 PM 33.7725 -82.5269 167° South 360 414 35,000 150 Climbing Atlanta Center
Sun 01:00:43 PM 33.6739 -82.5011 168° South 376 433 35,000  Level Atlanta Center
Sun 01:01:43 PM 33.5650 -82.4756 169° South 397 457 35,000 -50 Level Atlanta Center
Sun 01:02:43 PM 33.4564 -82.4553 171° South 397 457 34,900 -400 Descending Atlanta Center
Sun 01:03:43 PM 33.3458 -82.4597 182° South 397 457 34,200 -450 Descending Atlanta Center
Sun 01:04:43 PM 33.2186 -82.4644 182° South 410 472 34,000 -100 Descending Atlanta Center
Sun 01:05:43 PM 33.1078 -82.4667 181° South 410 472 34,000  Level Atlanta Center
Sun 01:06:43 PM 32.9972 -82.4611 178° South 402 463 34,000  Level Atlanta Center
Sun 01:07:43 PM 32.8864 -82.4508 176° South 402 463 34,000  Level Atlanta Center
Sun 01:08:43 PM 32.7736 -82.4478 179° South 402 463 34,000 -100 Level Atlanta Center
Sun 01:09:43 PM 32.6631 -82.4475 180° South 409 471 33,800 -1,333 Descending Atlanta Center
Sun 01:12:01 PM 32.4083 -82.5481 198° South 403 464 29,600 -1,879 Descending Jacksonville Center
Sun 01:13:01 PM 32.2956 -82.5878 197° South 413 475 27,600 -2,150 Descending Jacksonville Center
Sun 01:14:01 PM 32.1850 -82.5783 176° South 401 461 25,300 -2,600 Descending Jacksonville Center
Sun 01:15:01 PM 32.0722 -82.5689 176° South 401 461 22,400 -2,000 Descending Jacksonville Center
Sun 01:16:01 PM 31.9783 -82.6353 211° Southwest 385 443 21,300 -1,100 Descending Jacksonville Center
Sun 01:17:01 PM 31.8928 -82.7139 218° Southwest 385 443 20,200 -1,050 Descending Jacksonville Center
Sun 01:18:01 PM 31.8075 -82.7947 219° Southwest 396 456 19,200 -600 Descending Jacksonville Center
Sun 01:19:01 PM 31.7219 -82.8756 219° Southwest 402 463 19,000 -100 Descending Jacksonville Center
Sun 01:20:01 PM 31.6258 -82.9072 196° South 375 432 19,000  Level Jacksonville Center
Sun 01:21:01 PM 31.5444 -82.8389 144° Southeast 307 353 19,000  Level Jacksonville Center
Sun 01:22:01 PM 31.4733 -82.7611 137° Southeast 313 360 19,000  Level Jacksonville Center
Sun 01:23:01 PM 31.4000 -82.6833 138° Southeast 335 386 19,000  Level Jacksonville Center
Sun 01:24:01 PM 31.3311 -82.6081 137° Southeast 341 392 19,000 -300 Level Jacksonville Center
Sun 01:25:01 PM 31.2578 -82.5353 140° Southeast 341 392 18,400 -1,100 Descending Jacksonville Center
Sun 01:26:01 PM 31.1886 -82.4556 135° Southeast 346 398 16,800 -1,700 Descending Jacksonville Center
Sun 01:27:01 PM 31.1153 -82.3756 137° Southeast 346 398 15,000 -1,850 Descending Jacksonville Center
Sun 01:28:01 PM 31.0461 -82.3083 140° Southeast 335 386 13,100 -1,500 Descending Jacksonville Center
Sun 01:29:01 PM 30.9583 -82.2772 163° South 325 374 12,000 -600 Descending Jacksonville Center
Sun 01:30:01 PM 30.8703 -82.2511 166° South 330 380 11,900 -650 Descending Jacksonville Center
Sun 01:31:01 PM 30.7950 -82.2131 157° South 315 362 10,700 -1,350 Descending Jacksonville Center
Sun 01:32:01 PM 30.7342 -82.1556 141° Southeast 292 336 9,200 -1,650 Descending Jacksonville Center
Sun 01:33:01 PM 30.6733 -82.1028 143° Southeast 281 323 7,400 -1,600 Descending Jacksonville Center
Sun 01:34:01 PM 30.6144 -82.0500 142° Southeast 271 312 6,000 -1,250 Descending Jacksonville Center
Sun 01:35:01 PM 30.5556 -81.9953 141° Southeast 271 312 4,900 -1,100 Descending Jacksonville Center
Sun 01:36:01 PM 30.4969 -81.9428 142° Southeast 271 312 3,800 -1,217 Descending Jacksonville Center
Sun 01:37:19 PM 30.4442 -81.8708 130° Southeast 246 283 2,100 -820 Descending Jacksonville Center
Sun 01:38:20 PM 30.4644 -81.8056 70° East 175 201 1,900 -541 Descending Jacksonville Center
Sun 01:39:21 PM 30.4786 -81.7547 72° East 173 199 1,000 -787 Descending Jacksonville Center
Sun 01:40:22 PM 30.4908 -81.7139 71° East 127 146 300 -689 Descending Jacksonville Center
Sun 01:42:00 PM 30.4941 -81.6879 130° Southeast  Level Estimated
Sun 01:49:00 PM 30.4941 -81.6879 311° West  Level Estimated

Login

Don't have an account? Register now (free) for customized features, flight alerts, and more!